createdAt,value
2019-03-29T00:02:00.401Z,69.31
2019-03-29T00:04:32.699Z,68.82
2019-03-29T00:07:05.316Z,69.39
2019-03-29T00:09:37.700Z,69.62
2019-03-29T00:12:12.839Z,69.62
2019-03-29T00:14:45.349Z,70.95
2019-03-29T00:17:18.147Z,71.65
2019-03-29T00:19:50.606Z,71.50
2019-03-29T00:22:25.821Z,72.20
2019-03-29T00:24:58.301Z,72.20
2019-03-29T00:27:30.732Z,73.20
2019-03-29T00:30:03.302Z,73.20
2019-03-29T00:32:35.658Z,72.32
2019-03-29T00:35:09.603Z,72.32
2019-03-29T00:37:53.317Z,73.38
2019-03-29T00:40:18.042Z,73.36
2019-03-29T00:42:50.405Z,73.15
2019-03-29T00:45:22.774Z,72.82
2019-03-29T00:47:56.107Z,72.82
2019-03-29T00:50:28.690Z,73.84
2019-03-29T00:53:01.322Z,73.84
2019-03-29T00:55:33.868Z,71.20
2019-03-29T00:58:06.393Z,71.20
2019-03-29T01:00:38.780Z,71.46
2019-03-29T01:03:11.368Z,71.46
2019-03-29T01:05:43.806Z,70.82
2019-03-29T01:08:16.506Z,70.77
2019-03-29T01:10:50.481Z,70.56
2019-03-29T01:13:24.986Z,70.13
2019-03-29T01:15:57.551Z,70.33
2019-03-29T01:18:30.293Z,70.09
2019-03-29T01:21:02.829Z,69.71
2019-03-29T01:23:35.326Z,69.71
2019-03-29T01:26:07.694Z,69.91
2019-03-29T01:28:40.181Z,69.91
2019-03-29T01:31:12.634Z,69.54
2019-03-29T01:33:45.289Z,69.89
2019-03-29T01:36:17.758Z,70.30
2019-03-29T01:38:53.331Z,70.30
2019-03-29T01:41:27.018Z,70.33
2019-03-29T01:43:59.536Z,70.33
2019-03-29T01:46:33.386Z,70.97
2019-03-29T01:49:05.657Z,72.02
2019-03-29T01:51:38.301Z,72.02
2019-03-29T01:54:10.606Z,71.27
2019-03-29T01:56:43.294Z,71.27
2019-03-29T01:59:16.897Z,71.97
2019-03-29T02:01:49.424Z,71.97
2019-03-29T02:04:21.234Z,71.24
2019-03-29T02:06:53.473Z,71.69
2019-03-29T02:09:25.056Z,71.00
2019-03-29T02:12:00.501Z,70.92
2019-03-29T02:14:32.229Z,70.04
2019-03-29T02:17:04.557Z,71.79
2019-03-29T02:19:37.061Z,70.20
2019-03-29T02:22:12.577Z,71.73
2019-03-29T02:24:46.643Z,71.57
2019-03-29T02:27:19.293Z,71.54
2019-03-29T02:29:51.687Z,68.92
2019-03-29T02:32:25.135Z,68.92
2019-03-29T02:34:57.964Z,72.04
2019-03-29T02:38:04.230Z,72.67
2019-03-29T02:40:25.290Z,73.27
2019-03-29T02:42:58.293Z,73.58
2019-03-29T02:45:34.237Z,72.28
2019-03-29T02:48:05.423Z,72.28
2019-03-29T02:50:37.253Z,72.19
2019-03-29T02:53:09.648Z,74.08
2019-03-29T02:55:42.297Z,74.07
2019-03-29T02:58:16.296Z,71.08
2019-03-29T03:00:48.788Z,72.42
2019-03-29T03:03:21.375Z,72.42
2019-03-29T03:05:55.311Z,71.99
2019-03-29T03:08:27.266Z,71.99
2019-03-29T03:10:59.282Z,71.80
2019-03-29T03:13:31.482Z,72.65
2019-03-29T03:16:04.186Z,72.24
2019-03-29T03:18:36.554Z,70.61
2019-03-29T03:21:08.835Z,72.50
2019-03-29T03:23:44.318Z,73.97
2019-03-29T03:26:16.817Z,74.99
2019-03-29T03:28:49.489Z,74.99
2019-03-29T03:31:22.304Z,75.92
2019-03-29T03:33:54.917Z,75.78
2019-03-29T03:36:27.314Z,75.78
2019-03-29T03:38:59.755Z,77.54
2019-03-29T03:41:32.303Z,77.54
2019-03-29T03:44:07.612Z,77.37
2019-03-29T03:46:40.065Z,77.37
2019-03-29T03:49:12.404Z,77.01
2019-03-29T03:51:44.972Z,77.74
2019-03-29T03:54:18.340Z,77.74
2019-03-29T03:56:54.709Z,78.81
2019-03-29T03:59:32.042Z,78.81
2019-03-29T04:02:06.841Z,78.71
2019-03-29T04:04:39.297Z,77.44
2019-03-29T04:07:11.685Z,79.07
2019-03-29T04:09:49.765Z,79.07
2019-03-29T04:12:20.896Z,79.39
2019-03-29T04:14:53.292Z,79.39
2019-03-29T04:17:27.288Z,80.23
2019-03-29T04:19:59.569Z,80.13
2019-03-29T04:22:32.050Z,80.13
2019-03-29T04:25:06.823Z,80.76
2019-03-29T04:27:40.728Z,80.58
2019-03-29T04:42:25.783Z,81.36
2019-03-29T04:44:42.313Z,81.50
2019-03-29T04:47:16.375Z,81.19
2019-03-29T04:49:48.637Z,81.98
2019-03-29T04:52:21.336Z,81.98
2019-03-29T04:54:53.801Z,81.93
2019-03-29T04:57:30.330Z,81.93
2019-03-29T05:00:10.326Z,82.11
2019-03-29T05:02:45.508Z,82.97
2019-03-29T05:05:17.372Z,82.97
2019-03-29T05:07:51.325Z,81.09
2019-03-29T05:10:23.778Z,82.19
2019-03-29T05:12:59.389Z,82.19
2019-03-29T05:15:30.356Z,81.72
2019-03-29T05:18:05.792Z,82.11
2019-03-29T05:20:41.353Z,82.11
2019-03-29T05:23:13.664Z,79.47
2019-03-29T05:25:46.494Z,79.47
2019-03-29T05:28:27.343Z,77.80
2019-03-29T05:31:03.289Z,81.95
2019-03-29T05:33:36.719Z,78.28
2019-03-29T05:36:10.752Z,78.28
2019-03-29T05:38:45.398Z,80.02
2019-03-29T05:41:17.848Z,80.52
2019-03-29T05:43:54.496Z,76.10
2019-03-29T05:46:26.239Z,81.51
2019-03-29T05:48:58.459Z,79.34
2019-03-29T05:51:30.046Z,78.26
2019-03-29T05:54:02.465Z,75.32
2019-03-29T05:56:34.241Z,81.90
2019-03-29T05:59:08.551Z,80.26
2019-03-29T06:01:40.964Z,80.50
2019-03-29T06:04:13.367Z,81.18
2019-03-29T06:06:49.250Z,75.36
2019-03-29T06:09:21.313Z,75.36
2019-03-29T06:11:57.533Z,75.17
2019-03-29T06:14:33.018Z,75.17
2019-03-29T06:17:10.109Z,73.19
2019-03-29T06:19:45.401Z,76.62
2019-03-29T06:22:18.620Z,76.70
2019-03-29T06:25:27.162Z,78.06
2019-03-29T06:28:00.399Z,77.37
2019-03-29T06:30:35.697Z,77.28
2019-03-29T06:33:08.289Z,77.28
2019-03-29T06:35:43.259Z,76.00
2019-03-29T06:38:23.604Z,74.83
2019-03-29T06:41:02.759Z,74.83
2019-03-29T06:43:30.513Z,70.65
2019-03-29T06:46:06.313Z,75.16
2019-03-29T06:51:45.891Z,73.99
2019-03-29T07:00:54.353Z,72.12
2019-03-29T07:03:28.299Z,70.07
2019-03-29T07:06:00.768Z,67.97
2019-03-29T07:08:33.311Z,67.97
2019-03-29T07:11:16.660Z,69.82
2019-03-29T07:13:40.348Z,69.82
2019-03-29T07:16:12.799Z,68.39
2019-03-29T07:18:45.282Z,68.39
2019-03-29T07:21:21.731Z,67.12
2019-03-29T07:23:52.327Z,67.12
2019-03-29T07:26:24.745Z,66.81
2019-03-29T07:28:57.306Z,66.81
2019-03-29T07:31:29.703Z,65.10
2019-03-29T07:34:02.357Z,65.10
2019-03-29T07:36:34.841Z,64.46
2019-03-29T07:39:10.133Z,64.46
2019-03-29T07:41:42.557Z,64.21
2019-03-29T07:44:15.053Z,63.63
2019-03-29T07:46:47.448Z,64.22
2019-03-29T07:49:20.045Z,63.85
2019-03-29T07:51:52.454Z,62.74
2019-03-29T07:54:27.008Z,62.20
2019-03-29T07:56:59.344Z,62.51
2019-03-29T07:59:31.726Z,61.40
2019-03-29T08:02:04.291Z,61.40
2019-03-29T08:15:35.675Z,60.17
2019-03-29T09:46:48.597Z,46.83
2019-03-29T09:49:36.122Z,45.36
2019-03-29T09:55:47.082Z,45.83
2019-03-29T09:58:34.623Z,45.63
2019-03-29T10:01:40.881Z,45.63
2019-03-29T10:04:48.686Z,45.93
2019-03-29T10:07:45.804Z,46.78
2019-03-29T10:10:43.486Z,43.81
2019-03-29T10:13:58.420Z,42.42
2019-03-29T10:16:55.790Z,42.89
2019-03-29T10:19:39.805Z,39.76
2019-03-29T10:22:21.346Z,39.29
2019-03-29T10:24:56.426Z,39.65
2019-03-29T10:27:35.361Z,41.29
2019-03-29T10:30:19.166Z,40.37
2019-03-29T10:32:55.646Z,40.35
2019-03-29T10:35:50.724Z,39.36
2019-03-29T10:38:38.314Z,39.36
2019-03-29T10:41:07.485Z,39.39
2019-03-29T10:44:40.711Z,38.84
2019-03-29T10:48:35.859Z,38.93
2019-03-29T10:50:37.912Z,37.54
2019-03-29T10:53:08.871Z,35.28
2019-03-29T10:55:43.316Z,35.32
2019-03-29T10:58:16.333Z,34.98
2019-03-29T11:00:48.283Z,34.98
2019-03-29T11:06:47.328Z,35.06
2019-03-29T11:09:23.063Z,34.32
2019-03-29T11:11:57.335Z,34.32
2019-03-29T11:14:32.592Z,34.58
2019-03-29T11:17:04.834Z,33.65
2019-03-29T11:19:37.745Z,33.65
2019-03-29T11:22:10.766Z,33.45
2019-03-29T11:24:43.483Z,34.05
2019-03-29T11:27:16.341Z,33.51
2019-03-29T11:29:51.504Z,32.90
2019-03-29T11:32:24.305Z,32.90
2019-03-29T11:34:58.409Z,33.87
2019-03-29T11:37:30.081Z,32.54
2019-03-29T11:40:02.631Z,32.33
2019-03-29T11:42:37.072Z,33.74
2019-03-29T11:45:09.670Z,32.66
2019-03-29T11:47:42.331Z,32.95
2019-03-29T11:50:17.041Z,32.11
2019-03-29T11:52:49.465Z,32.11
2019-03-29T11:55:21.117Z,33.38
2019-03-29T11:57:55.842Z,32.01
2019-03-29T12:00:39.393Z,31.58
2019-03-29T12:03:12.427Z,30.12
2019-03-29T12:05:46.351Z,30.36
2019-03-29T12:08:18.310Z,30.36
2019-03-29T12:10:50.963Z,29.38
2019-03-29T12:13:23.673Z,29.38
2019-03-29T12:15:56.286Z,27.56
2019-03-29T12:18:28.840Z,26.33
2019-03-29T12:21:01.339Z,26.33
2019-03-29T12:23:34.066Z,25.90
2019-03-29T12:26:06.605Z,25.90
2019-03-29T12:28:39.294Z,24.44
2019-03-29T12:31:11.958Z,24.71
2019-03-29T12:33:47.385Z,24.71
2019-03-29T12:36:24.544Z,25.68
2019-03-29T12:38:57.449Z,22.94
2019-03-29T12:41:30.116Z,22.61
2019-03-29T12:44:04.590Z,21.76
2019-03-29T12:46:38.787Z,21.86
2019-03-29T12:49:12.456Z,20.74
2019-03-29T12:51:46.871Z,21.32
2019-03-29T12:54:19.632Z,18.65
2019-03-29T12:56:52.320Z,19.51
2019-03-29T12:59:25.327Z,19.07
2019-03-29T13:01:57.869Z,17.02
2019-03-29T13:04:30.752Z,17.02
2019-03-29T13:07:03.433Z,17.48
2019-03-29T13:09:35.422Z,15.86
2019-03-29T13:12:07.618Z,17.71
2019-03-29T13:14:40.318Z,17.84
2019-03-29T13:17:12.897Z,15.82
2019-03-29T13:19:45.356Z,15.82
2019-03-29T13:22:17.260Z,16.91
2019-03-29T13:24:50.042Z,17.02
2019-03-29T13:27:22.530Z,17.02
2019-03-29T13:29:55.350Z,18.41
2019-03-29T13:32:29.101Z,17.63
2019-03-29T13:35:02.066Z,18.81
2019-03-29T13:37:34.790Z,17.63
2019-03-29T13:40:12.305Z,18.09
2019-03-29T13:42:45.318Z,15.97
2019-03-29T13:45:17.254Z,16.13
2019-03-29T13:47:49.589Z,16.13
2019-03-29T13:50:22.280Z,15.46
2019-03-29T13:52:54.962Z,14.79
2019-03-29T13:55:28.143Z,14.79
2019-03-29T13:58:00.624Z,15.10
2019-03-29T14:00:33.290Z,14.68
2019-03-29T14:03:06.243Z,14.24
2019-03-29T14:05:38.507Z,14.24
2019-03-29T14:08:12.264Z,14.90
2019-03-29T14:10:44.687Z,15.62
2019-03-29T14:13:19.708Z,14.58
2019-03-29T14:15:51.614Z,16.33
2019-03-29T14:18:24.672Z,15.02
2019-03-29T14:20:58.878Z,15.08
2019-03-29T14:23:31.472Z,15.32
2019-03-29T14:26:04.284Z,14.40
2019-03-29T14:28:40.654Z,14.90
2019-03-29T14:31:16.046Z,14.90
2019-03-29T14:33:50.380Z,15.32
2019-03-29T14:36:22.882Z,15.01
2019-03-29T14:38:55.567Z,17.71
2019-03-29T14:41:30.361Z,15.72
2019-03-29T14:44:02.028Z,14.37
2019-03-29T14:46:34.415Z,14.37
2019-03-29T14:49:06.746Z,15.13
2019-03-29T14:51:40.669Z,16.04
2019-03-29T14:54:13.301Z,15.46
2019-03-29T14:56:45.638Z,16.37
2019-03-29T14:59:18.354Z,16.37
2019-03-29T15:01:51.470Z,16.46
2019-03-29T15:04:23.239Z,16.46
2019-03-29T15:06:55.614Z,15.11
2019-03-29T15:09:28.315Z,15.06
2019-03-29T15:12:00.821Z,13.50
2019-03-29T15:14:33.297Z,13.50
2019-03-29T15:17:05.864Z,14.30
2019-03-29T15:19:38.825Z,14.30
2019-03-29T15:22:11.313Z,16.72
2019-03-29T15:27:01.463Z,13.54
2019-03-29T15:29:33.083Z,16.38
2019-03-29T15:32:07.309Z,14.98
2019-03-29T15:34:40.495Z,15.10
2019-03-29T15:37:13.607Z,15.10
2019-03-29T15:39:46.412Z,14.50
2019-03-29T15:42:20.591Z,15.20
2019-03-29T15:44:53.432Z,15.91
2019-03-29T15:47:27.436Z,17.25
2019-03-29T15:49:59.426Z,17.57
2019-03-29T15:52:31.292Z,17.61
2019-03-29T15:55:04.420Z,17.25
2019-03-29T15:57:40.170Z,17.46
2019-03-29T16:00:15.307Z,19.39
2019-03-29T16:02:47.268Z,16.36
2019-03-29T16:05:20.064Z,16.36
2019-03-29T16:07:55.775Z,15.74
2019-03-29T16:10:28.555Z,15.22
2019-03-29T16:13:03.563Z,17.72
2019-03-29T16:15:38.315Z,17.13
2019-03-29T16:18:15.932Z,17.58
2019-03-29T16:20:53.348Z,17.58
2019-03-29T16:23:33.905Z,18.66
2019-03-29T16:26:06.501Z,16.46
2019-03-29T16:28:39.553Z,18.82
2019-03-29T16:31:12.292Z,18.85
2019-03-29T16:33:44.767Z,17.59
2019-03-29T16:36:17.310Z,17.93
2019-03-29T16:38:50.266Z,21.17
2019-03-29T16:41:22.621Z,22.92
2019-03-29T16:43:55.289Z,22.92
2019-03-29T16:46:27.764Z,24.52
2019-03-29T16:49:00.348Z,24.52
2019-03-29T16:51:33.744Z,27.68
2019-03-29T16:54:06.379Z,27.68
2019-03-29T16:56:38.056Z,28.48
2019-03-29T16:59:13.787Z,28.93
2019-03-29T17:01:46.321Z,29.40
2019-03-29T17:04:18.891Z,30.35
2019-03-29T17:06:51.373Z,30.35
2019-03-29T17:09:23.228Z,31.69
2019-03-29T17:11:55.713Z,31.70
2019-03-29T17:14:28.466Z,32.39
2019-03-29T17:17:00.457Z,32.62
2019-03-29T17:19:33.072Z,33.07
2019-03-29T17:22:05.562Z,33.07
2019-03-29T17:24:38.014Z,34.00
2019-03-29T17:27:12.318Z,34.16
2019-03-29T17:29:44.985Z,35.74
2019-03-29T17:32:17.343Z,35.74
2019-03-29T17:34:49.706Z,35.67
2019-03-29T17:37:22.342Z,35.67
2019-03-29T17:39:55.273Z,36.46
2019-03-29T17:42:28.060Z,37.56
2019-03-29T17:45:01.284Z,37.56
2019-03-29T17:47:33.643Z,37.30
2019-03-29T17:50:07.307Z,37.30
2019-03-29T17:52:41.634Z,38.06
2019-03-29T17:55:16.909Z,38.22
2019-03-29T17:57:48.374Z,39.07
2019-03-29T18:00:22.479Z,39.26
2019-03-29T18:02:54.238Z,39.26
2019-03-29T18:05:26.690Z,40.53
2019-03-29T18:07:59.183Z,39.75
2019-03-29T18:10:34.624Z,40.50
2019-03-29T18:13:07.279Z,40.50
2019-03-29T18:15:41.737Z,41.46
2019-03-29T18:18:14.296Z,41.46
2019-03-29T18:20:46.716Z,42.22
2019-03-29T18:23:19.365Z,42.22
2019-03-29T18:25:52.266Z,41.79
2019-03-29T18:38:39.579Z,43.78
2019-03-29T18:41:12.350Z,44.19
2019-03-29T18:43:44.771Z,44.79
2019-03-29T18:46:17.302Z,44.79
2019-03-29T18:48:49.978Z,45.10
2019-03-29T18:51:22.500Z,45.10
2019-03-29T18:53:54.251Z,45.53
2019-03-29T18:56:26.708Z,46.40
2019-03-29T18:58:59.301Z,46.52
2019-03-29T19:01:31.746Z,47.00
2019-03-29T19:04:04.355Z,47.00
2019-03-29T19:06:36.966Z,47.96
2019-03-29T19:09:09.413Z,47.96
2019-03-29T19:11:41.852Z,48.15
2019-03-29T19:14:14.417Z,48.56
2019-03-29T19:16:58.299Z,49.38
2019-03-29T19:19:20.346Z,50.70
2019-03-29T19:21:52.797Z,50.66
2019-03-29T19:24:25.303Z,50.66
2019-03-29T19:26:57.735Z,52.39
2019-03-29T19:29:30.362Z,52.39
2019-03-29T19:32:03.307Z,51.15
2019-03-29T19:34:35.756Z,52.25
2019-03-29T19:37:08.602Z,52.25
2019-03-29T19:39:41.303Z,52.54
2019-03-29T19:42:16.618Z,53.15
2019-03-29T19:44:47.280Z,53.15
2019-03-29T19:47:19.754Z,53.79
2019-03-29T19:49:55.229Z,53.79
2019-03-29T19:52:28.758Z,54.45
2019-03-29T19:55:02.707Z,54.84
2019-03-29T19:57:36.997Z,55.52
2019-03-29T20:00:15.653Z,55.82
2019-03-29T20:02:49.839Z,55.97
2019-03-29T20:05:30.321Z,56.36
2019-03-29T20:08:02.926Z,57.33
2019-03-29T20:10:35.567Z,57.33
2019-03-29T20:13:08.429Z,57.48
2019-03-29T20:15:41.309Z,58.11
2019-03-29T20:18:14.130Z,58.64
2019-03-29T20:20:46.658Z,58.64
2019-03-29T20:23:19.317Z,58.91
2019-03-29T20:25:53.386Z,59.22
2019-03-29T20:28:25.925Z,60.23
2019-03-29T20:30:58.341Z,60.23
2019-03-29T20:33:31.055Z,60.25
2019-03-29T20:36:03.750Z,60.25
2019-03-29T20:38:38.054Z,61.10
2019-03-29T20:41:10.542Z,61.12
2019-03-29T20:43:43.286Z,61.09
2019-03-29T20:46:15.112Z,61.42
2019-03-29T20:48:47.413Z,61.55
2019-03-29T20:51:19.427Z,61.65
2019-03-29T20:53:53.555Z,61.98
2019-03-29T20:56:28.751Z,62.31
2019-03-29T20:59:00.294Z,62.31
2019-03-29T21:01:33.080Z,62.48
2019-03-29T21:04:07.484Z,62.48
2019-03-29T21:06:39.066Z,62.87
2019-03-29T21:09:11.463Z,63.16
2019-03-29T21:11:43.840Z,63.22
2019-03-29T21:14:16.303Z,63.53
2019-03-29T21:16:51.556Z,63.65
2019-03-29T21:19:23.897Z,63.65
2019-03-29T21:21:56.332Z,63.77
2019-03-29T21:24:28.768Z,64.41
2019-03-29T21:27:01.315Z,64.41
2019-03-29T21:29:33.256Z,64.20
2019-03-29T21:32:11.573Z,64.59
2019-03-29T21:34:44.062Z,64.24
2019-03-29T21:37:16.627Z,64.51
2019-03-29T21:39:49.296Z,64.75
2019-03-29T21:42:21.029Z,64.83
2019-03-29T21:44:53.406Z,65.21
2019-03-29T21:47:30.529Z,65.43
2019-03-29T21:50:02.249Z,64.97
2019-03-29T21:52:34.633Z,64.97
2019-03-29T21:55:08.036Z,65.71
2019-03-29T21:57:41.374Z,66.19
2019-03-29T22:00:17.371Z,66.29
2019-03-29T22:02:49.979Z,66.29
2019-03-29T22:05:22.402Z,66.64
2019-03-29T22:07:54.902Z,67.01
2019-03-29T22:10:27.442Z,67.01
2019-03-29T22:12:59.304Z,66.69
2019-03-29T22:15:31.743Z,67.55
2019-03-29T22:18:06.843Z,67.82
2019-03-29T22:20:38.541Z,67.72
2019-03-29T22:23:11.228Z,67.94
2019-03-29T22:25:43.757Z,68.27
2019-03-29T22:28:16.316Z,68.49
2019-03-29T22:30:48.685Z,69.61
2019-03-29T22:33:21.300Z,69.61
2019-03-29T22:35:54.554Z,69.22
2019-03-29T22:38:27.050Z,69.61
2019-03-29T22:40:59.471Z,69.39
2019-03-29T22:43:31.123Z,69.50
2019-03-29T22:46:03.432Z,69.40
2019-03-29T22:48:51.346Z,69.63
2019-03-29T22:51:12.471Z,69.89
2019-03-29T22:53:44.882Z,69.99
2019-03-29T22:56:18.345Z,70.31
2019-03-29T22:58:51.729Z,70.44
2019-03-29T23:01:24.319Z,70.44
2019-03-29T23:03:56.817Z,70.97
2019-03-29T23:06:29.301Z,70.97
2019-03-29T23:09:01.778Z,71.12
2019-03-29T23:11:35.514Z,71.12
2019-03-29T23:14:07.276Z,71.24
2019-03-29T23:16:39.447Z,70.93
2019-03-29T23:19:11.264Z,70.96
2019-03-29T23:21:43.855Z,71.37
2019-03-29T23:24:21.031Z,71.79
2019-03-29T23:26:56.572Z,71.67
2019-03-29T23:29:30.749Z,71.54
2019-03-29T23:32:07.631Z,72.34
2019-03-29T23:34:41.804Z,72.34
2019-03-29T23:37:14.296Z,70.44
2019-03-29T23:39:53.414Z,71.60
2019-03-29T23:42:25.476Z,71.60
2019-03-29T23:45:02.559Z,72.12
2019-03-29T23:47:36.267Z,72.36
2019-03-29T23:50:10.828Z,73.03
2019-03-29T23:52:48.736Z,71.73
2019-03-29T23:55:24.077Z,73.12
2019-03-29T23:57:56.735Z,73.24
